createdAt,value
2022-12-25T00:01:06.584Z,1.75
2022-12-25T00:03:33.600Z,2.22
2022-12-25T00:06:00.386Z,1.80
2022-12-25T00:08:27.135Z,1.75
2022-12-25T00:10:58.073Z,1.80
2022-12-25T00:13:26.318Z,2.08
2022-12-25T00:15:53.176Z,1.77
2022-12-25T00:18:20.038Z,2.00
2022-12-25T00:20:56.231Z,2.20
2022-12-25T00:23:22.995Z,1.75
2022-12-25T00:25:49.736Z,1.88
2022-12-25T00:28:16.484Z,2.20
2022-12-25T00:30:44.723Z,1.80
2022-12-25T00:33:11.442Z,2.03
2022-12-25T00:35:38.153Z,2.25
2022-12-25T00:38:05.200Z,2.30
2022-12-25T00:40:31.979Z,2.63
2022-12-25T00:42:58.696Z,2.97
2022-12-25T00:45:25.507Z,2.20
2022-12-25T00:47:53.851Z,2.03
2022-12-25T00:50:20.589Z,2.00
2022-12-25T00:52:47.298Z,1.60
2022-12-25T00:55:14.026Z,2.38
2022-12-25T00:57:40.765Z,2.00
2022-12-25T01:00:08.719Z,1.85
2022-12-25T01:02:35.719Z,1.48
2022-12-25T01:05:04.795Z,2.33
2022-12-25T01:07:31.529Z,2.40
2022-12-25T01:09:58.276Z,2.70
2022-12-25T01:12:25.224Z,2.42
2022-12-25T01:14:51.958Z,2.17
2022-12-25T01:17:18.698Z,2.28
2022-12-25T01:19:45.544Z,2.60
2022-12-25T01:22:13.945Z,2.35
2022-12-25T01:24:40.699Z,2.25
2022-12-25T01:27:07.463Z,2.33
2022-12-25T01:29:34.241Z,2.13
2022-12-25T01:32:00.994Z,3.17
2022-12-25T01:34:27.769Z,2.67
2022-12-25T01:36:54.553Z,2.03
2022-12-25T01:39:22.609Z,2.30
2022-12-25T01:41:49.454Z,2.28
2022-12-25T01:44:53.592Z,2.25
2022-12-25T01:47:20.339Z,2.15
2022-12-25T01:49:49.842Z,2.42
2022-12-25T01:52:24.151Z,2.22
2022-12-25T01:54:57.600Z,2.00
2022-12-25T01:57:26.175Z,2.10
2022-12-25T01:59:53.921Z,2.20
2022-12-25T02:02:21.545Z,2.30
2022-12-25T02:04:53.876Z,2.63
2022-12-25T02:07:23.209Z,2.50
2022-12-25T02:09:51.209Z,2.40
2022-12-25T02:12:23.146Z,2.15
2022-12-25T02:14:51.964Z,2.20
2022-12-25T02:17:24.791Z,2.40
2022-12-25T02:20:13.868Z,2.25
2022-12-25T02:22:51.578Z,2.72
2022-12-25T02:25:32.953Z,2.83
2022-12-25T02:28:21.332Z,2.28
2022-12-25T02:30:53.919Z,2.63
2022-12-25T02:33:27.755Z,2.38
2022-12-25T02:35:56.584Z,2.30
2022-12-25T02:38:30.995Z,2.10
2022-12-25T02:41:02.073Z,2.58
2022-12-25T02:43:33.384Z,2.45
2022-12-25T02:46:02.878Z,2.42
2022-12-25T02:48:33.763Z,2.70
2022-12-25T02:51:04.327Z,2.50
2022-12-25T02:53:33.395Z,2.40
2022-12-25T02:56:00.415Z,2.67
2022-12-25T02:58:27.993Z,2.78
2022-12-25T03:01:00.903Z,2.40
2022-12-25T03:03:32.740Z,2.28
2022-12-25T03:06:03.473Z,2.72
2022-12-25T03:08:35.268Z,2.28
2022-12-25T03:11:05.145Z,2.65
2022-12-25T03:13:38.892Z,2.92
2022-12-25T03:16:07.672Z,2.60
2022-12-25T03:18:35.043Z,2.60
2022-12-25T03:21:01.882Z,2.80
2022-12-25T03:23:32.588Z,2.30
2022-12-25T03:25:59.356Z,2.78
2022-12-25T03:28:26.406Z,2.67
2022-12-25T03:31:01.593Z,3.30
2022-12-25T03:33:46.013Z,2.90
2022-12-25T03:36:19.098Z,3.03
2022-12-25T03:38:54.651Z,3.13
2022-12-25T03:41:25.927Z,3.10
2022-12-25T03:43:57.772Z,3.40
2022-12-25T03:46:32.066Z,3.15
2022-12-25T03:49:07.379Z,3.15
2022-12-25T03:51:37.498Z,3.58
2022-12-25T03:54:08.066Z,2.90
2022-12-25T03:56:37.319Z,2.97
2022-12-25T03:59:04.080Z,3.20
2022-12-25T04:01:30.941Z,3.40
2022-12-25T04:03:57.781Z,2.95
2022-12-25T04:06:25.858Z,3.10
2022-12-25T04:08:52.676Z,2.85
2022-12-25T04:11:19.491Z,2.63
2022-12-25T04:13:46.225Z,2.72
2022-12-25T04:16:13.043Z,2.40
2022-12-25T04:18:40.176Z,2.88
2022-12-25T04:21:07.139Z,2.30
2022-12-25T04:23:35.295Z,2.08
2022-12-25T04:26:02.026Z,2.72
2022-12-25T04:28:28.991Z,1.92
2022-12-25T04:30:59.506Z,2.20
2022-12-25T04:33:26.338Z,2.30
2022-12-25T04:35:53.682Z,2.30
2022-12-25T04:38:20.437Z,2.90
2022-12-25T04:40:48.496Z,2.47
2022-12-25T04:43:15.264Z,2.70
2022-12-25T04:45:41.968Z,2.90
2022-12-25T04:48:08.646Z,2.85
2022-12-25T04:50:35.355Z,3.40
2022-12-25T04:53:02.040Z,2.78
2022-12-25T04:55:28.717Z,2.70
2022-12-25T04:57:56.803Z,2.53
2022-12-25T05:00:23.707Z,2.30
2022-12-25T05:02:50.602Z,2.42
2022-12-25T05:05:17.635Z,2.40
2022-12-25T05:07:44.392Z,2.50
2022-12-25T05:10:11.737Z,2.13
2022-12-25T05:12:38.468Z,2.60
2022-12-25T05:15:07.474Z,2.83
2022-12-25T05:17:34.470Z,2.72
2022-12-25T05:20:01.257Z,3.08
2022-12-25T05:22:28.021Z,2.55
2022-12-25T05:24:54.775Z,2.00
2022-12-25T05:27:21.504Z,2.78
2022-12-25T05:29:48.360Z,1.85
2022-12-25T05:32:16.491Z,2.03
2022-12-25T05:34:43.215Z,2.00
2022-12-25T05:37:09.888Z,2.30
2022-12-25T05:39:36.651Z,2.05
2022-12-25T05:42:03.396Z,2.40
2022-12-25T05:44:30.079Z,2.00
2022-12-25T05:46:56.850Z,1.83
2022-12-25T05:49:25.142Z,2.20
2022-12-25T05:51:52.444Z,2.42
2022-12-25T05:54:19.187Z,2.50
2022-12-25T05:56:45.896Z,2.28
2022-12-25T05:59:12.623Z,2.75
2022-12-25T06:01:39.600Z,2.85
2022-12-25T06:04:12.229Z,2.80
2022-12-25T06:06:40.991Z,2.10
2022-12-25T06:09:08.447Z,2.00
2022-12-25T06:11:35.200Z,2.55
2022-12-25T06:14:01.988Z,1.85
2022-12-25T06:16:34.046Z,2.42
2022-12-25T06:19:04.421Z,2.33
2022-12-25T06:21:31.307Z,2.22
2022-12-25T06:24:01.176Z,2.20
2022-12-25T06:26:28.475Z,2.28
2022-12-25T06:28:55.206Z,2.53
2022-12-25T06:31:23.132Z,2.20
2022-12-25T06:33:50.190Z,1.75
2022-12-25T06:36:19.058Z,2.17
2022-12-25T06:38:46.143Z,2.42
2022-12-25T06:41:16.932Z,2.08
2022-12-25T06:43:47.479Z,1.98
2022-12-25T06:46:14.261Z,2.08
2022-12-25T06:48:41.880Z,2.10
2022-12-25T06:51:08.663Z,2.95
2022-12-25T06:53:40.217Z,15.07
2022-12-25T06:56:09.219Z,8.93
2022-12-25T06:58:37.415Z,9.00
2022-12-25T07:01:07.151Z,8.45
2022-12-25T07:03:34.007Z,7.07
2022-12-25T07:06:00.728Z,3.42
2022-12-25T07:08:27.449Z,3.78
2022-12-25T07:10:55.327Z,3.63
2022-12-25T07:13:22.033Z,3.13
2022-12-25T07:15:55.658Z,2.72
2022-12-25T07:18:22.360Z,3.05
2022-12-25T07:20:49.046Z,2.92
2022-12-25T07:23:15.762Z,3.03
2022-12-25T07:25:42.693Z,2.55
2022-12-25T07:28:09.599Z,2.95
2022-12-25T07:30:37.780Z,3.78
2022-12-25T07:33:05.819Z,3.30
2022-12-25T07:35:32.543Z,2.92
2022-12-25T07:37:59.260Z,3.13
2022-12-25T07:40:25.945Z,2.83
2022-12-25T07:42:52.619Z,2.97
2022-12-25T07:45:19.407Z,2.63
2022-12-25T07:47:46.153Z,2.47
2022-12-25T07:50:14.326Z,1.92
2022-12-25T07:52:43.562Z,2.20
2022-12-25T07:55:10.850Z,2.38
2022-12-25T07:57:37.586Z,2.22
2022-12-25T08:00:04.862Z,2.30
2022-12-25T08:02:31.919Z,2.17
2022-12-25T08:04:59.003Z,1.60
2022-12-25T08:07:27.029Z,1.95
2022-12-25T08:09:53.827Z,1.95
2022-12-25T08:12:20.570Z,2.50
2022-12-25T08:14:47.281Z,2.45
2022-12-25T08:17:14.156Z,2.60
2022-12-25T08:19:40.927Z,4.72
2022-12-25T08:22:07.729Z,3.17
2022-12-25T08:24:35.921Z,2.33
2022-12-25T08:27:03.223Z,1.85
2022-12-25T08:29:29.914Z,1.67
2022-12-25T08:31:56.953Z,1.60
2022-12-25T08:34:23.714Z,1.83
2022-12-25T08:36:50.448Z,1.60
2022-12-25T08:39:17.333Z,1.70
2022-12-25T08:41:45.371Z,1.40
2022-12-25T08:44:12.448Z,1.45
2022-12-25T08:46:39.194Z,1.40
2022-12-25T08:49:05.942Z,1.52
2022-12-25T08:51:32.742Z,1.35
2022-12-25T08:54:01.012Z,1.30
2022-12-25T08:56:28.252Z,1.60
2022-12-25T08:58:56.422Z,1.50
2022-12-25T09:01:23.252Z,1.35
2022-12-25T09:03:50.076Z,1.88
2022-12-25T09:06:17.013Z,1.67
2022-12-25T09:08:49.081Z,1.30
2022-12-25T09:11:18.161Z,1.58
2022-12-25T09:13:44.954Z,1.30
2022-12-25T09:16:15.909Z,1.42
2022-12-25T09:18:42.781Z,1.70
2022-12-25T09:21:11.674Z,1.60
2022-12-25T09:23:38.716Z,1.55
2022-12-25T09:26:08.181Z,1.33
2022-12-25T09:28:34.925Z,1.08
2022-12-25T09:31:03.882Z,1.15
2022-12-25T09:33:32.653Z,1.35
2022-12-25T09:36:00.526Z,2.20
2022-12-25T09:38:28.469Z,2.60
2022-12-25T09:41:00.566Z,2.35
2022-12-25T09:43:30.882Z,1.60
2022-12-25T09:46:00.013Z,1.23
2022-12-25T09:48:30.390Z,1.27
2022-12-25T09:51:02.824Z,1.30
2022-12-25T09:53:36.557Z,1.60
2022-12-25T09:56:09.404Z,1.42
2022-12-25T09:58:36.248Z,1.48
2022-12-25T10:01:12.798Z,1.50
2022-12-25T10:04:11.622Z,1.13
2022-12-25T10:06:49.839Z,1.80
2022-12-25T10:09:27.800Z,1.35
2022-12-25T10:12:09.880Z,1.33
2022-12-25T10:14:42.960Z,1.38
2022-12-25T10:17:30.702Z,1.50
2022-12-25T10:20:04.585Z,1.25
2022-12-25T10:22:38.318Z,2.00
2022-12-25T10:25:05.805Z,1.40
2022-12-25T10:27:36.823Z,1.35
2022-12-25T10:30:13.084Z,1.17
2022-12-25T10:32:39.824Z,1.40
2022-12-25T10:35:11.324Z,1.60
2022-12-25T10:37:40.450Z,1.50
2022-12-25T10:40:26.496Z,1.40
2022-12-25T10:42:57.390Z,1.27
2022-12-25T10:45:24.253Z,1.50
2022-12-25T10:48:07.088Z,1.20
2022-12-25T10:50:34.340Z,1.25
2022-12-25T10:53:04.655Z,1.42
2022-12-25T10:55:31.619Z,1.60
2022-12-25T10:57:58.738Z,1.58
2022-12-25T11:00:30.802Z,1.67
2022-12-25T11:02:58.127Z,1.55
2022-12-25T11:05:27.683Z,1.65
2022-12-25T11:07:54.661Z,1.55
2022-12-25T11:10:25.308Z,1.60
2022-12-25T11:12:53.305Z,1.70
2022-12-25T11:15:34.641Z,1.48
2022-12-25T11:18:01.386Z,1.60
2022-12-25T11:20:28.284Z,1.50
2022-12-25T11:22:55.191Z,1.40
2022-12-25T11:25:25.630Z,1.60
2022-12-25T11:28:00.675Z,1.70
2022-12-25T11:30:28.977Z,2.08
2022-12-25T11:32:58.569Z,2.10
2022-12-25T11:35:31.341Z,1.92
2022-12-25T11:37:58.347Z,2.15
2022-12-25T11:40:33.418Z,2.28
2022-12-25T11:43:08.302Z,2.40
2022-12-25T11:45:38.911Z,2.35
2022-12-25T11:48:11.195Z,2.38
2022-12-25T11:50:42.047Z,2.10
2022-12-25T11:53:17.216Z,2.30
2022-12-25T11:55:48.286Z,2.10
2022-12-25T11:58:20.143Z,2.35
2022-12-25T12:00:48.286Z,2.60
2022-12-25T12:03:20.307Z,2.17
2022-12-25T12:05:51.724Z,2.35
2022-12-25T12:08:18.720Z,2.33
2022-12-25T12:11:05.192Z,2.30
2022-12-25T12:13:40.924Z,3.00
2022-12-25T12:16:08.929Z,2.58
2022-12-25T12:18:36.843Z,3.10
2022-12-25T12:21:06.928Z,2.65
2022-12-25T12:23:36.831Z,3.03
2022-12-25T12:26:05.296Z,2.78
2022-12-25T12:28:43.755Z,2.90
2022-12-25T12:31:10.620Z,2.90
2022-12-25T12:33:40.992Z,2.92
2022-12-25T12:36:12.792Z,2.88
2022-12-25T12:38:40.073Z,2.72
2022-12-25T12:41:09.930Z,2.67
2022-12-25T12:43:39.432Z,2.95
2022-12-25T12:46:17.751Z,2.55
2022-12-25T12:48:46.641Z,3.08
2022-12-25T12:51:15.247Z,3.17
2022-12-25T12:53:42.783Z,3.30
2022-12-25T12:56:16.976Z,3.20
2022-12-25T13:01:19.261Z,3.33
2022-12-25T13:04:23.154Z,3.45
2022-12-25T13:06:55.893Z,2.75
2022-12-25T13:09:32.520Z,2.70
2022-12-25T13:12:04.380Z,3.40
2022-12-25T13:14:31.244Z,2.70
2022-12-25T13:16:59.307Z,3.45
2022-12-25T13:19:28.616Z,2.92
2022-12-25T13:21:57.169Z,2.90
2022-12-25T13:24:25.720Z,3.03
2022-12-25T13:26:52.471Z,2.92
2022-12-25T13:29:28.827Z,3.35
2022-12-25T13:31:55.822Z,3.17
2022-12-25T13:34:27.146Z,2.72
2022-12-25T13:36:55.716Z,3.38
2022-12-25T13:39:23.317Z,3.50
2022-12-25T13:41:51.840Z,3.17
2022-12-25T13:44:22.141Z,3.00
2022-12-25T13:46:50.496Z,3.05
2022-12-25T13:49:18.798Z,3.53
2022-12-25T13:51:46.235Z,3.10
2022-12-25T13:54:14.685Z,3.00
2022-12-25T13:56:47.720Z,2.85
2022-12-25T13:59:17.397Z,2.95
2022-12-25T14:01:44.590Z,3.15
2022-12-25T14:04:16.376Z,2.90
2022-12-25T14:06:43.231Z,3.00
2022-12-25T14:09:11.764Z,2.30
2022-12-25T14:11:41.160Z,2.75
2022-12-25T14:14:15.948Z,2.00
2022-12-25T14:16:44.676Z,2.58
2022-12-25T14:19:25.385Z,2.10
2022-12-25T14:21:56.826Z,2.83
2022-12-25T14:24:26.052Z,2.70
2022-12-25T14:26:58.491Z,2.70
2022-12-25T14:29:28.476Z,2.30
2022-12-25T14:31:57.827Z,2.38
2022-12-25T14:34:27.480Z,2.53
2022-12-25T14:36:54.348Z,2.60
2022-12-25T14:39:29.889Z,3.00
2022-12-25T14:41:56.846Z,2.75
2022-12-25T14:44:34.985Z,2.60
2022-12-25T14:47:12.716Z,2.45
2022-12-25T14:49:40.886Z,3.50
2022-12-25T14:52:15.469Z,3.38
2022-12-25T14:54:46.271Z,3.22
2022-12-25T14:57:18.290Z,3.05
2022-12-25T14:59:45.136Z,3.17
2022-12-25T15:02:18.145Z,2.85
2022-12-25T15:04:46.415Z,3.10
2022-12-25T15:07:26.586Z,3.35
2022-12-25T15:10:18.429Z,3.30
2022-12-25T15:12:39.992Z,4.75
2022-12-25T15:15:07.726Z,4.70
2022-12-25T15:17:36.198Z,4.00
2022-12-25T15:20:04.944Z,4.00
2022-12-25T15:22:54.162Z,6.82
2022-12-25T15:25:20.213Z,10.05
2022-12-25T15:27:47.245Z,6.30
2022-12-25T15:30:14.648Z,4.90
2022-12-25T15:32:41.411Z,6.35
2022-12-25T15:35:15.002Z,5.15
2022-12-25T15:37:41.797Z,7.05
2022-12-25T15:40:11.591Z,4.32
2022-12-25T15:42:38.663Z,3.60
2022-12-25T15:45:12.582Z,6.38
2022-12-25T15:47:39.334Z,10.00
2022-12-25T15:50:07.444Z,29.60
2022-12-25T15:52:35.458Z,9.15
2022-12-25T15:55:02.166Z,5.47
2022-12-25T15:57:28.961Z,24.98
2022-12-25T15:59:55.642Z,4.07
2022-12-25T16:02:22.511Z,5.47
2022-12-25T16:04:49.394Z,5.75
2022-12-25T16:07:18.307Z,16.10
2022-12-25T16:09:46.631Z,12.60
2022-12-25T16:12:13.338Z,15.25
2022-12-25T16:14:40.057Z,10.82
2022-12-25T16:17:07.244Z,12.32
2022-12-25T16:19:34.075Z,15.10
2022-12-25T16:22:00.816Z,11.35
2022-12-25T16:24:27.531Z,9.57
2022-12-25T16:26:55.612Z,8.90
2022-12-25T16:29:22.368Z,10.60
2022-12-25T16:31:49.101Z,9.23
2022-12-25T16:34:15.864Z,8.05
2022-12-25T16:36:42.612Z,22.38
2022-12-25T16:39:09.384Z,11.48
2022-12-25T16:41:36.173Z,7.13
2022-12-25T16:44:05.948Z,6.53
2022-12-25T16:46:32.743Z,5.85
2022-12-25T16:48:59.543Z,6.63
2022-12-25T16:51:26.270Z,6.63
2022-12-25T16:53:53.063Z,6.57
2022-12-25T16:56:20.238Z,5.38
2022-12-25T16:58:48.486Z,5.13
2022-12-25T17:01:18.850Z,4.93
2022-12-25T17:03:46.739Z,3.83
2022-12-25T17:06:15.010Z,3.63
2022-12-25T17:08:42.465Z,3.22
2022-12-25T17:11:09.440Z,3.83
2022-12-25T17:13:36.301Z,4.70
2022-12-25T17:16:12.851Z,3.65
2022-12-25T17:18:40.985Z,4.25
2022-12-25T17:21:07.814Z,4.18
2022-12-25T17:23:34.596Z,4.20
2022-12-25T17:26:01.435Z,4.20
2022-12-25T17:28:28.208Z,22.73
2022-12-25T17:30:55.102Z,5.28
2022-12-25T17:33:21.990Z,6.10
2022-12-25T17:35:50.091Z,5.28
2022-12-25T17:38:16.983Z,4.25
2022-12-25T17:40:43.718Z,5.15
2022-12-25T17:43:14.305Z,3.72
2022-12-25T17:45:45.593Z,4.35
2022-12-25T17:48:12.275Z,4.70
2022-12-25T17:50:41.431Z,4.38
2022-12-25T17:53:09.902Z,3.85
2022-12-25T17:55:37.897Z,3.20
2022-12-25T17:58:04.875Z,3.08
2022-12-25T18:00:31.626Z,3.88
2022-12-25T18:02:58.894Z,3.75
2022-12-25T18:05:26.299Z,3.75
2022-12-25T18:07:53.542Z,4.72
2022-12-25T18:10:21.637Z,4.60
2022-12-25T18:12:48.481Z,3.72
2022-12-25T18:15:15.199Z,4.05
2022-12-25T18:17:41.964Z,5.55
2022-12-25T18:20:09.292Z,3.33
2022-12-25T18:22:36.021Z,3.85
2022-12-25T18:25:02.932Z,3.67
2022-12-25T18:27:30.993Z,3.60
2022-12-25T18:29:57.743Z,3.47
2022-12-25T18:32:27.978Z,3.35
2022-12-25T18:34:55.434Z,2.85
2022-12-25T18:37:22.195Z,3.67
2022-12-25T18:39:48.928Z,2.60
2022-12-25T18:42:15.617Z,3.20
2022-12-25T18:44:43.715Z,6.22
2022-12-25T18:47:10.445Z,3.95
2022-12-25T18:49:37.495Z,2.85
2022-12-25T18:52:49.125Z,2.65
2022-12-25T18:54:52.290Z,2.72
2022-12-25T18:57:19.541Z,2.78
2022-12-25T18:59:48.180Z,2.45
2022-12-25T19:02:16.107Z,2.55
2022-12-25T19:04:43.251Z,2.50
2022-12-25T19:07:12.440Z,2.45
2022-12-25T19:09:39.263Z,2.85
2022-12-25T19:12:06.577Z,2.83
2022-12-25T19:14:47.226Z,2.80
2022-12-25T19:17:16.921Z,2.53
2022-12-25T19:19:44.219Z,3.00
2022-12-25T19:22:11.386Z,2.90
2022-12-25T19:24:38.414Z,2.60
2022-12-25T19:27:05.613Z,2.35
2022-12-25T19:29:32.909Z,2.70
2022-12-25T19:32:00.135Z,2.88
2022-12-25T19:34:28.945Z,3.03
2022-12-25T19:36:56.026Z,3.40
2022-12-25T19:39:23.163Z,2.67
2022-12-25T19:41:50.337Z,3.00
2022-12-25T19:44:17.549Z,2.78
2022-12-25T19:46:45.215Z,2.40
2022-12-25T19:49:13.502Z,2.30
2022-12-25T19:51:46.539Z,1.60
2022-12-25T19:54:15.501Z,1.88
2022-12-25T19:56:43.328Z,2.00
2022-12-25T19:59:11.897Z,2.00
2022-12-25T20:01:39.471Z,2.10
2022-12-25T20:04:07.352Z,2.10
2022-12-25T20:06:35.365Z,2.17
2022-12-25T20:09:05.846Z,2.17
2022-12-25T20:11:33.495Z,2.28
2022-12-25T20:14:00.327Z,2.33
2022-12-25T20:16:27.713Z,2.55
2022-12-25T20:18:57.212Z,2.22
2022-12-25T20:21:25.715Z,2.22
2022-12-25T20:23:54.190Z,2.47
2022-12-25T20:26:25.494Z,2.03
2022-12-25T20:28:52.408Z,2.15
2022-12-25T20:31:24.451Z,2.22
2022-12-25T20:33:51.304Z,2.30
2022-12-25T20:36:18.048Z,2.33
2022-12-25T20:38:44.799Z,2.40
2022-12-25T20:41:30.093Z,2.88
2022-12-25T20:43:58.595Z,2.53
2022-12-25T20:46:26.058Z,1.95
2022-12-25T20:48:53.363Z,1.85
2022-12-25T20:51:22.732Z,1.90
2022-12-25T20:53:49.871Z,1.70
2022-12-25T20:56:18.300Z,1.90
2022-12-25T20:58:45.216Z,1.40
2022-12-25T21:01:15.132Z,1.38
2022-12-25T21:03:42.353Z,1.90
2022-12-25T21:06:11.228Z,1.73
2022-12-25T21:08:38.668Z,1.23
2022-12-25T21:11:07.170Z,1.10
2022-12-25T21:13:35.646Z,1.20
2022-12-25T21:16:05.507Z,1.52
2022-12-25T21:18:34.095Z,1.10
2022-12-25T21:21:01.332Z,1.70
2022-12-25T21:23:28.921Z,1.63
2022-12-25T21:25:55.724Z,1.40
2022-12-25T21:28:23.416Z,1.50
2022-12-25T21:30:50.190Z,1.60
2022-12-25T21:33:17.357Z,1.50
2022-12-25T21:35:45.588Z,1.38
2022-12-25T21:38:12.670Z,1.60
2022-12-25T21:40:39.859Z,1.30
2022-12-25T21:43:06.705Z,1.27
2022-12-25T21:45:34.460Z,1.50
2022-12-25T21:48:03.529Z,1.25
2022-12-25T21:50:34.642Z,1.35
2022-12-25T21:53:06.490Z,1.65
2022-12-25T21:55:33.413Z,1.75
2022-12-25T21:58:00.134Z,1.30
2022-12-25T22:00:27.205Z,1.45
2022-12-25T22:02:54.174Z,1.33
2022-12-25T22:05:21.003Z,1.60
2022-12-25T22:07:49.681Z,1.80
2022-12-25T22:10:17.787Z,1.67
2022-12-25T22:12:44.639Z,1.75
2022-12-25T22:15:12.057Z,1.35
2022-12-25T22:17:40.112Z,1.98
2022-12-25T22:20:10.117Z,1.55
2022-12-25T22:22:36.981Z,1.60
2022-12-25T22:25:05.318Z,1.90
2022-12-25T22:27:34.788Z,1.58
2022-12-25T22:30:01.694Z,1.60
2022-12-25T22:32:28.496Z,1.40
2022-12-25T22:34:55.267Z,1.58
2022-12-25T22:37:23.083Z,1.50
2022-12-25T22:39:49.858Z,1.55
2022-12-25T22:42:16.889Z,1.67
2022-12-25T22:44:45.803Z,1.60
2022-12-25T22:47:12.515Z,1.52
2022-12-25T22:49:39.192Z,1.70
2022-12-25T22:52:05.884Z,1.40
2022-12-25T22:54:32.625Z,1.67
2022-12-25T22:56:59.333Z,1.25
2022-12-25T22:59:26.891Z,1.30
2022-12-25T23:01:55.326Z,2.20
2022-12-25T23:04:22.154Z,1.73
2022-12-25T23:06:48.835Z,1.73
2022-12-25T23:09:24.136Z,1.80
2022-12-25T23:11:51.463Z,2.05
2022-12-25T23:14:18.200Z,1.60
2022-12-25T23:16:44.956Z,1.80
2022-12-25T23:19:13.439Z,1.95
2022-12-25T23:21:40.921Z,2.00
2022-12-25T23:24:09.662Z,1.90
2022-12-25T23:26:36.383Z,1.90
2022-12-25T23:29:03.130Z,2.05
2022-12-25T23:31:32.442Z,1.95
2022-12-25T23:33:59.255Z,1.85
2022-12-25T23:36:27.451Z,1.70
2022-12-25T23:38:54.196Z,1.83
2022-12-25T23:41:21.000Z,2.25
2022-12-25T23:43:47.807Z,1.80
2022-12-25T23:46:14.711Z,1.80
2022-12-25T23:48:41.453Z,1.80
2022-12-25T23:51:08.538Z,1.65
2022-12-25T23:53:36.659Z,1.83
2022-12-25T23:56:05.588Z,1.70
2022-12-25T23:58:33.510Z,2.17
